createdAt,value
2022-11-20T00:00:08.216Z,-3.65
2022-11-20T00:01:08.228Z,-3.64
2022-11-20T00:02:08.237Z,-3.65
2022-11-20T00:03:08.195Z,-3.62
2022-11-20T00:04:08.181Z,-3.60
2022-11-20T00:05:08.182Z,-3.61
2022-11-20T00:06:08.142Z,-3.60
2022-11-20T00:07:08.189Z,-3.61
2022-11-20T00:08:08.121Z,-3.64
2022-11-20T00:09:08.143Z,-3.64
2022-11-20T00:10:08.111Z,-3.70
2022-11-20T00:11:12.796Z,-3.76
2022-11-20T00:12:09.132Z,-3.80
2022-11-20T00:13:08.544Z,-3.76
2022-11-20T00:14:08.092Z,-3.78
2022-11-20T00:15:09.536Z,-3.78
2022-11-20T00:16:08.055Z,-3.76
2022-11-20T00:17:08.071Z,-3.76
2022-11-20T00:18:08.035Z,-3.76
2022-11-20T00:19:08.048Z,-3.75
2022-11-20T00:20:07.993Z,-3.75
2022-11-20T00:21:08.012Z,-3.72
2022-11-20T00:22:07.991Z,-3.75
2022-11-20T00:23:08.007Z,-3.76
2022-11-20T00:24:07.953Z,-3.78
2022-11-20T00:25:07.965Z,-3.80
2022-11-20T00:26:07.937Z,-3.81
2022-11-20T00:27:07.970Z,-3.80
2022-11-20T00:28:07.922Z,-3.81
2022-11-20T00:29:08.531Z,-3.80
2022-11-20T00:30:11.084Z,-3.78
2022-11-20T00:31:08.915Z,-3.80
2022-11-20T00:32:07.891Z,-3.78
2022-11-20T00:33:07.898Z,-3.83
2022-11-20T00:34:07.902Z,-3.81
2022-11-20T00:35:07.941Z,-3.84
2022-11-20T00:36:09.297Z,-3.86
2022-11-20T00:37:07.863Z,-3.87
2022-11-20T00:38:07.829Z,-3.89
2022-11-20T00:39:07.904Z,-3.90
2022-11-20T00:40:07.786Z,-3.91
2022-11-20T00:41:07.822Z,-3.94
2022-11-20T00:42:07.766Z,-3.96
2022-11-20T00:43:07.825Z,-3.96
2022-11-20T00:44:07.803Z,-3.96
2022-11-20T00:45:07.847Z,-3.93
2022-11-20T00:46:07.758Z,-3.89
2022-11-20T00:47:09.195Z,-3.87
2022-11-20T00:48:07.692Z,-3.91
2022-11-20T00:49:07.760Z,-3.96
2022-11-20T00:50:07.686Z,-3.98
2022-11-20T00:51:07.763Z,-3.99
2022-11-20T00:52:07.683Z,-3.96
2022-11-20T00:53:07.679Z,-3.94
2022-11-20T00:54:07.668Z,-3.93
2022-11-20T00:55:07.650Z,-3.90
2022-11-20T00:56:07.621Z,-3.93
2022-11-20T00:57:07.630Z,-3.91
2022-11-20T00:58:12.985Z,-3.91
2022-11-20T00:59:08.628Z,-3.93
2022-11-20T01:00:09.046Z,-4.01
2022-11-20T01:01:09.169Z,-4.01
2022-11-20T01:02:07.576Z,-4.04
2022-11-20T01:03:07.570Z,-4.07
2022-11-20T01:04:07.552Z,-4.11
2022-11-20T01:05:07.577Z,-4.18
2022-11-20T01:06:07.583Z,-4.15
2022-11-20T01:07:07.595Z,-4.19
2022-11-20T01:08:07.482Z,-4.15
2022-11-20T01:09:07.520Z,-4.18
2022-11-20T01:10:07.461Z,-4.15
2022-11-20T01:11:07.511Z,-4.14
2022-11-20T01:12:07.830Z,-4.12
2022-11-20T01:13:07.464Z,-4.11
2022-11-20T01:14:07.447Z,-4.11
2022-11-20T01:15:07.841Z,-4.11
2022-11-20T01:16:08.367Z,-4.11
2022-11-20T01:17:07.430Z,-4.11
2022-11-20T01:18:07.396Z,-4.11
2022-11-20T01:19:07.444Z,-4.08
2022-11-20T01:20:07.384Z,-4.12
2022-11-20T01:21:07.375Z,-4.12
2022-11-20T01:22:07.351Z,-4.11
2022-11-20T01:23:07.389Z,-4.11
2022-11-20T01:24:08.836Z,-4.11
2022-11-20T01:25:08.805Z,-4.11
2022-11-20T01:26:07.299Z,-4.11
2022-11-20T01:27:07.333Z,-4.09
2022-11-20T01:28:07.289Z,-4.12
2022-11-20T01:29:07.314Z,-4.11
2022-11-20T01:30:07.265Z,-4.09
2022-11-20T01:31:07.274Z,-4.07
2022-11-20T01:32:07.250Z,-4.04
2022-11-20T01:33:07.256Z,-4.02
2022-11-20T01:34:07.214Z,-4.01
2022-11-20T01:35:07.249Z,-4.01
2022-11-20T01:36:08.146Z,-4.01
2022-11-20T01:37:08.190Z,-4.01
2022-11-20T01:38:07.161Z,-3.99
2022-11-20T01:39:07.214Z,-3.96
2022-11-20T01:40:07.170Z,-3.98
2022-11-20T01:41:07.165Z,-3.98
2022-11-20T01:42:09.914Z,-3.98
2022-11-20T01:43:07.149Z,-3.99
2022-11-20T01:44:07.134Z,-3.98
2022-11-20T01:45:07.136Z,-3.98
2022-11-20T01:46:07.103Z,-3.96
2022-11-20T01:47:07.110Z,-4.02
2022-11-20T01:48:07.062Z,-4.05
2022-11-20T01:49:07.106Z,-4.09
2022-11-20T01:50:07.064Z,-4.18
2022-11-20T01:51:07.050Z,-4.22
2022-11-20T01:52:07.021Z,-4.23
2022-11-20T01:53:07.055Z,-4.23
2022-11-20T01:54:07.013Z,-4.25
2022-11-20T01:55:07.020Z,-4.26
2022-11-20T01:56:07.006Z,-4.28
2022-11-20T01:57:06.996Z,-4.26
2022-11-20T01:58:07.841Z,-4.25
2022-11-20T01:59:06.979Z,-4.22
2022-11-20T02:00:06.958Z,-4.19
2022-11-20T02:01:07.010Z,-4.20
2022-11-20T02:02:06.963Z,-4.19
2022-11-20T02:03:06.932Z,-4.20
2022-11-20T02:04:06.899Z,-4.20
2022-11-20T02:05:06.932Z,-4.20
2022-11-20T02:06:06.870Z,-4.20
2022-11-20T02:07:06.950Z,-4.26
2022-11-20T02:08:06.884Z,-4.29
2022-11-20T02:09:06.866Z,-4.29
2022-11-20T02:10:08.293Z,-4.32
2022-11-20T02:11:08.316Z,-4.38
2022-11-20T02:12:06.815Z,-4.43
2022-11-20T02:13:06.823Z,-4.48
2022-11-20T02:14:06.823Z,-4.48
2022-11-20T02:15:06.888Z,-4.50
2022-11-20T02:16:06.799Z,-4.47
2022-11-20T02:17:06.772Z,-4.44
2022-11-20T02:18:06.788Z,-4.47
2022-11-20T02:19:06.735Z,-4.48
2022-11-20T02:20:06.790Z,-4.54
2022-11-20T02:21:06.726Z,-4.59
2022-11-20T02:22:06.730Z,-4.62
2022-11-20T02:23:06.707Z,-4.61
2022-11-20T02:24:06.720Z,-4.58
2022-11-20T02:25:06.692Z,-4.57
2022-11-20T02:26:06.700Z,-4.51
2022-11-20T02:27:06.692Z,-4.48
2022-11-20T02:28:06.776Z,-4.46
2022-11-20T02:29:06.657Z,-4.41
2022-11-20T02:30:06.678Z,-4.37
2022-11-20T02:31:06.620Z,-4.33
2022-11-20T02:32:06.627Z,-4.38
2022-11-20T02:33:06.618Z,-4.37
2022-11-20T02:34:06.617Z,-4.40
2022-11-20T02:35:06.570Z,-4.41
2022-11-20T02:36:06.587Z,-4.40
2022-11-20T02:37:06.667Z,-4.38
2022-11-20T02:38:06.568Z,-4.41
2022-11-20T02:39:06.591Z,-4.43
2022-11-20T02:40:06.562Z,-4.46
2022-11-20T02:41:07.218Z,-4.47
2022-11-20T02:42:06.538Z,-4.46
2022-11-20T02:43:06.488Z,-4.47
2022-11-20T02:44:06.517Z,-4.46
2022-11-20T02:45:06.466Z,-4.46
2022-11-20T02:46:06.492Z,-4.50
2022-11-20T02:47:06.473Z,-4.51
2022-11-20T02:48:06.488Z,-4.51
2022-11-20T02:49:06.421Z,-4.51
2022-11-20T02:50:06.441Z,-4.50
2022-11-20T02:51:06.415Z,-4.48
2022-11-20T02:52:06.429Z,-4.47
2022-11-20T02:53:07.880Z,-4.48
2022-11-20T02:54:06.410Z,-4.48
2022-11-20T02:55:06.359Z,-4.47
2022-11-20T02:56:06.409Z,-4.46
2022-11-20T02:57:06.343Z,-4.48
2022-11-20T02:58:06.352Z,-4.47
2022-11-20T02:59:06.345Z,-4.47
2022-11-20T03:00:06.342Z,-4.50
2022-11-20T03:01:06.365Z,-4.51
2022-11-20T03:02:06.312Z,-4.51
2022-11-20T03:03:06.290Z,-4.55
2022-11-20T03:04:06.293Z,-4.55
2022-11-20T03:05:06.262Z,-4.57
2022-11-20T03:06:06.273Z,-4.58
2022-11-20T03:07:06.287Z,-4.59
2022-11-20T03:08:06.251Z,-4.59
2022-11-20T03:09:06.232Z,-4.58
2022-11-20T03:10:06.245Z,-4.57
2022-11-20T03:11:06.194Z,-4.57
2022-11-20T03:12:06.208Z,-4.58
2022-11-20T03:13:06.172Z,-4.59
2022-11-20T03:14:06.220Z,-4.62
2022-11-20T03:15:06.155Z,-4.61
2022-11-20T03:16:06.185Z,-4.64
2022-11-20T03:17:06.121Z,-4.62
2022-11-20T03:18:06.133Z,-4.65
2022-11-20T03:19:06.104Z,-4.66
2022-11-20T03:20:06.137Z,-4.66
2022-11-20T03:21:06.086Z,-4.69
2022-11-20T03:22:06.105Z,-4.71
2022-11-20T03:23:06.073Z,-4.71
2022-11-20T03:24:06.092Z,-4.73
2022-11-20T03:25:06.038Z,-4.71
2022-11-20T03:26:06.101Z,-4.69
2022-11-20T03:27:06.033Z,-4.65
2022-11-20T03:28:06.037Z,-4.62
2022-11-20T03:29:06.008Z,-4.58
2022-11-20T03:30:06.031Z,-4.55
2022-11-20T03:31:06.012Z,-4.51
2022-11-20T03:32:06.008Z,-4.47
2022-11-20T03:33:05.966Z,-4.44
2022-11-20T03:34:06.020Z,-4.46
2022-11-20T03:35:05.946Z,-4.44
2022-11-20T03:36:07.417Z,-4.44
2022-11-20T03:37:07.396Z,-4.47
2022-11-20T03:38:05.957Z,-4.48
2022-11-20T03:39:05.948Z,-4.48
2022-11-20T03:40:05.929Z,-4.47
2022-11-20T03:41:05.893Z,-4.48
2022-11-20T03:42:05.941Z,-4.54
2022-11-20T03:43:05.849Z,-4.59
2022-11-20T03:44:05.875Z,-4.65
2022-11-20T03:45:05.840Z,-4.68
2022-11-20T03:46:05.852Z,-4.73
2022-11-20T03:47:05.825Z,-4.73
2022-11-20T03:48:05.831Z,-4.76
2022-11-20T03:49:05.790Z,-4.73
2022-11-20T03:50:05.811Z,-4.73
2022-11-20T03:51:05.805Z,-4.68
2022-11-20T03:52:05.779Z,-4.68
2022-11-20T03:53:05.752Z,-4.68
2022-11-20T03:54:05.760Z,-4.68
2022-11-20T03:55:06.066Z,-4.69
2022-11-20T03:56:07.206Z,-4.75
2022-11-20T03:57:05.791Z,-4.76
2022-11-20T03:58:05.731Z,-4.76
2022-11-20T03:59:05.729Z,-4.77
2022-11-20T04:00:05.718Z,-4.79
2022-11-20T04:01:05.667Z,-4.80
2022-11-20T04:02:05.880Z,-4.86
2022-11-20T04:03:05.647Z,-4.87
2022-11-20T04:04:05.680Z,-4.86
2022-11-20T04:05:05.647Z,-4.83
2022-11-20T04:06:05.643Z,-4.85
2022-11-20T04:07:05.664Z,-4.83
2022-11-20T04:08:05.642Z,-4.80
2022-11-20T04:09:05.597Z,-4.79
2022-11-20T04:10:05.591Z,-4.82
2022-11-20T04:11:05.584Z,-4.83
2022-11-20T04:12:05.585Z,-4.83
2022-11-20T04:13:05.546Z,-4.85
2022-11-20T04:14:05.554Z,-4.85
2022-11-20T04:15:05.521Z,-4.85
2022-11-20T04:16:05.551Z,-4.83
2022-11-20T04:17:05.494Z,-4.93
2022-11-20T04:18:05.511Z,-4.93
2022-11-20T04:19:05.509Z,-4.94
2022-11-20T04:20:05.557Z,-4.89
2022-11-20T04:21:06.930Z,-4.91
2022-11-20T04:22:05.474Z,-4.89
2022-11-20T04:23:05.437Z,-4.89
2022-11-20T04:24:05.456Z,-4.91
2022-11-20T04:25:05.426Z,-4.94
2022-11-20T04:26:05.465Z,-4.94
2022-11-20T04:27:05.396Z,-4.95
2022-11-20T04:28:05.404Z,-4.98
2022-11-20T04:29:05.377Z,-5.00
2022-11-20T04:30:05.388Z,-5.01
2022-11-20T04:31:05.360Z,-5.01
2022-11-20T04:32:05.368Z,-4.98
2022-11-20T04:33:05.333Z,-4.95
2022-11-20T04:34:05.403Z,-4.95
2022-11-20T04:35:05.331Z,-4.93
2022-11-20T04:36:05.313Z,-4.91
2022-11-20T04:37:05.284Z,-4.89
2022-11-20T04:38:05.295Z,-4.83
2022-11-20T04:39:05.279Z,-4.82
2022-11-20T04:40:05.285Z,-4.80
2022-11-20T04:41:05.264Z,-4.79
2022-11-20T04:42:05.255Z,-4.76
2022-11-20T04:43:05.238Z,-4.75
2022-11-20T04:44:05.258Z,-4.71
2022-11-20T04:45:05.218Z,-4.71
2022-11-20T04:46:06.670Z,-4.71
2022-11-20T04:47:05.188Z,-4.73
2022-11-20T04:48:05.211Z,-4.77
2022-11-20T04:49:05.200Z,-4.82
2022-11-20T04:50:05.350Z,-4.86
2022-11-20T04:51:05.140Z,-4.86
2022-11-20T04:52:05.154Z,-4.87
2022-11-20T04:53:05.139Z,-4.87
2022-11-20T04:54:05.141Z,-4.87
2022-11-20T04:55:05.092Z,-4.86
2022-11-20T04:56:05.106Z,-4.85
2022-11-20T04:57:06.308Z,-4.83
2022-11-20T04:58:05.103Z,-4.83
2022-11-20T04:59:05.074Z,-4.79
2022-11-20T05:00:05.081Z,-4.77
2022-11-20T05:01:05.218Z,-4.80
2022-11-20T05:02:05.086Z,-4.82
2022-11-20T05:03:05.975Z,-4.82
2022-11-20T05:04:05.033Z,-4.80
2022-11-20T05:05:04.984Z,-4.77
2022-11-20T05:06:05.022Z,-4.79
2022-11-20T05:07:05.009Z,-4.76
2022-11-20T05:08:04.994Z,-4.73
2022-11-20T05:09:04.944Z,-4.69
2022-11-20T05:10:04.975Z,-4.68
2022-11-20T05:11:04.948Z,-4.66
2022-11-20T05:12:04.944Z,-4.62
2022-11-20T05:13:04.909Z,-4.59
2022-11-20T05:14:04.932Z,-4.55
2022-11-20T05:15:04.886Z,-4.54
2022-11-20T05:16:04.915Z,-4.50
2022-11-20T05:17:04.866Z,-4.47
2022-11-20T05:18:04.879Z,-4.47
2022-11-20T05:19:04.845Z,-4.41
2022-11-20T05:20:04.865Z,-4.38
2022-11-20T05:21:04.843Z,-4.40
2022-11-20T05:22:04.837Z,-4.40
2022-11-20T05:23:04.808Z,-4.38
2022-11-20T05:24:04.843Z,-4.33
2022-11-20T05:25:04.797Z,-4.33
2022-11-20T05:26:04.795Z,-4.32
2022-11-20T05:27:04.760Z,-4.25
2022-11-20T05:28:04.788Z,-4.26
2022-11-20T05:29:04.761Z,-4.28
2022-11-20T05:30:04.777Z,-4.26
2022-11-20T05:31:04.752Z,-4.26
2022-11-20T05:32:06.198Z,-4.25
2022-11-20T05:33:04.716Z,-4.28
2022-11-20T05:34:04.726Z,-4.28
2022-11-20T05:35:04.699Z,-4.32
2022-11-20T05:36:04.715Z,-4.40
2022-11-20T05:37:04.658Z,-4.47
2022-11-20T05:38:04.690Z,-4.54
2022-11-20T05:39:04.661Z,-4.58
2022-11-20T05:40:04.748Z,-4.58
2022-11-20T05:41:04.634Z,-4.57
2022-11-20T05:42:04.630Z,-4.51
2022-11-20T05:43:04.613Z,-4.54
2022-11-20T05:44:04.643Z,-4.51
2022-11-20T05:45:04.617Z,-4.50
2022-11-20T05:46:04.609Z,-4.51
2022-11-20T05:47:04.556Z,-4.47
2022-11-20T05:48:04.586Z,-4.43
2022-11-20T05:49:04.535Z,-4.37
2022-11-20T05:50:06.016Z,-4.36
2022-11-20T05:51:04.544Z,-4.32
2022-11-20T05:52:04.553Z,-4.26
2022-11-20T05:53:04.551Z,-4.22
2022-11-20T05:54:04.522Z,-4.19
2022-11-20T05:55:04.490Z,-4.15
2022-11-20T05:56:04.503Z,-4.15
2022-11-20T05:57:04.618Z,-4.18
2022-11-20T05:58:05.935Z,-4.18
2022-11-20T05:59:04.445Z,-4.19
2022-11-20T06:00:04.483Z,-4.22
2022-11-20T06:01:04.410Z,-4.19
2022-11-20T06:02:04.440Z,-4.18
2022-11-20T06:03:04.433Z,-4.18
2022-11-20T06:04:04.406Z,-4.14
2022-11-20T06:05:04.388Z,-4.11
2022-11-20T06:06:04.392Z,-4.12
2022-11-20T06:07:04.443Z,-4.14
2022-11-20T06:08:05.171Z,-4.11
2022-11-20T06:09:04.326Z,-4.08
2022-11-20T06:10:04.354Z,-4.08
2022-11-20T06:11:04.345Z,-4.09
2022-11-20T06:12:04.325Z,-4.08
2022-11-20T06:13:04.283Z,-4.05
2022-11-20T06:14:04.300Z,-4.04
2022-11-20T06:15:04.269Z,-3.99
2022-11-20T06:16:04.284Z,-3.99
2022-11-20T06:17:04.256Z,-4.02
2022-11-20T06:18:04.275Z,-3.99
2022-11-20T06:19:04.218Z,-3.99
2022-11-20T06:20:04.236Z,-3.98
2022-11-20T06:21:04.222Z,-3.94
2022-11-20T06:22:04.615Z,-3.93
2022-11-20T06:23:05.642Z,-3.91
2022-11-20T06:24:05.668Z,-3.90
2022-11-20T06:25:04.197Z,-3.91
2022-11-20T06:26:04.193Z,-3.91
2022-11-20T06:27:04.170Z,-3.91
2022-11-20T06:28:04.123Z,-3.90
2022-11-20T06:29:04.141Z,-3.89
2022-11-20T06:30:04.118Z,-3.89
2022-11-20T06:31:04.156Z,-3.90
2022-11-20T06:32:04.111Z,-3.87
2022-11-20T06:33:04.109Z,-3.87
2022-11-20T06:34:04.073Z,-3.89
2022-11-20T06:35:04.081Z,-3.86
2022-11-20T06:36:10.096Z,-3.84
2022-11-20T06:37:05.088Z,-3.87
2022-11-20T06:38:04.018Z,-3.91
2022-11-20T06:39:04.467Z,-3.93
2022-11-20T06:40:04.026Z,-3.98
2022-11-20T06:41:04.024Z,-4.01
2022-11-20T06:42:03.976Z,-4.04
2022-11-20T06:43:04.019Z,-4.09
2022-11-20T06:44:03.981Z,-4.12
2022-11-20T06:45:03.969Z,-4.18
2022-11-20T06:46:03.940Z,-4.18
2022-11-20T06:47:03.953Z,-4.19
2022-11-20T06:48:03.932Z,-4.22
2022-11-20T06:49:04.916Z,-4.19
2022-11-20T06:50:03.901Z,-4.18
2022-11-20T06:51:03.935Z,-4.20
2022-11-20T06:52:03.890Z,-4.19
2022-11-20T06:53:03.895Z,-4.19
2022-11-20T06:54:03.878Z,-4.18
2022-11-20T06:55:03.935Z,-4.14
2022-11-20T06:56:03.823Z,-4.14
2022-11-20T06:57:03.852Z,-4.14
2022-11-20T06:58:03.832Z,-4.14
2022-11-20T06:59:03.862Z,-4.12
2022-11-20T07:00:03.790Z,-4.12
2022-11-20T07:01:03.918Z,-4.11
2022-11-20T07:02:03.765Z,-4.07
2022-11-20T07:03:03.801Z,-4.05
2022-11-20T07:04:03.777Z,-4.01
2022-11-20T07:05:03.784Z,-4.01
2022-11-20T07:06:03.740Z,-3.98
2022-11-20T07:07:05.289Z,-3.98
2022-11-20T07:08:05.202Z,-3.96
2022-11-20T07:09:05.479Z,-3.94
2022-11-20T07:10:03.724Z,-3.94
2022-11-20T07:11:03.723Z,-3.94
2022-11-20T07:12:03.666Z,-3.93
2022-11-20T07:13:03.718Z,-3.93
2022-11-20T07:14:03.679Z,-3.91
2022-11-20T07:15:03.686Z,-3.96
2022-11-20T07:16:03.625Z,-3.98
2022-11-20T07:17:03.647Z,-3.98
2022-11-20T07:18:03.625Z,-3.98
2022-11-20T07:19:03.646Z,-3.98
2022-11-20T07:20:03.604Z,-4.02
2022-11-20T07:21:03.589Z,-3.99
2022-11-20T07:22:03.558Z,-3.99
2022-11-20T07:23:03.632Z,-3.98
2022-11-20T07:24:03.553Z,-3.94
2022-11-20T07:25:03.572Z,-3.90
2022-11-20T07:26:03.523Z,-3.89
2022-11-20T07:27:03.528Z,-3.86
2022-11-20T07:28:03.489Z,-3.86
2022-11-20T07:29:03.525Z,-3.84
2022-11-20T07:30:03.511Z,-3.84
2022-11-20T07:31:03.526Z,-3.84
2022-11-20T07:32:03.461Z,-3.80
2022-11-20T07:33:03.491Z,-3.80
2022-11-20T07:34:04.916Z,-3.80
2022-11-20T07:35:03.453Z,-3.76
2022-11-20T07:36:03.425Z,-3.78
2022-11-20T07:37:09.040Z,-3.76
2022-11-20T07:38:04.403Z,-3.76
2022-11-20T07:39:03.403Z,-3.78
2022-11-20T07:40:03.363Z,-3.76
2022-11-20T07:41:03.392Z,-3.72
2022-11-20T07:42:03.361Z,-3.71
2022-11-20T07:43:03.358Z,-3.68
2022-11-20T07:44:03.321Z,-3.65
2022-11-20T07:45:03.342Z,-3.64
2022-11-20T07:46:03.330Z,-3.65
2022-11-20T07:47:03.323Z,-3.64
2022-11-20T07:48:03.284Z,-3.67
2022-11-20T07:49:03.310Z,-3.68
2022-11-20T07:50:03.284Z,-3.70
2022-11-20T07:51:03.284Z,-3.75
2022-11-20T07:52:04.979Z,-3.78
2022-11-20T07:53:03.275Z,-3.80
2022-11-20T07:54:03.345Z,-3.80
2022-11-20T07:55:03.276Z,-3.80
2022-11-20T07:56:03.209Z,-3.81
2022-11-20T07:57:03.217Z,-3.81
2022-11-20T07:58:03.233Z,-3.75
2022-11-20T07:59:03.251Z,-3.72
2022-11-20T08:00:03.160Z,-3.68
2022-11-20T08:01:03.299Z,-3.65
2022-11-20T08:02:03.152Z,-3.64
2022-11-20T08:03:03.153Z,-3.64
2022-11-20T08:04:03.132Z,-3.62
2022-11-20T08:05:03.169Z,-3.64
2022-11-20T08:06:03.180Z,-3.61
2022-11-20T08:07:03.226Z,-3.61
2022-11-20T08:08:03.099Z,-3.61
2022-11-20T08:09:03.095Z,-3.61
2022-11-20T08:10:03.111Z,-3.61
2022-11-20T08:11:03.088Z,-3.61
2022-11-20T08:12:03.035Z,-3.60
2022-11-20T08:13:03.096Z,-3.61
2022-11-20T08:14:03.014Z,-3.64
2022-11-20T08:15:03.896Z,-3.64
2022-11-20T08:16:03.027Z,-3.64
2022-11-20T08:17:03.024Z,-3.68
2022-11-20T08:18:29.484Z,-3.68
2022-11-20T08:19:04.959Z,-3.67
2022-11-20T08:20:02.957Z,-3.65
2022-11-20T08:21:02.978Z,-3.62
2022-11-20T08:22:02.957Z,-3.62
2022-11-20T08:23:02.992Z,-3.61
2022-11-20T08:24:02.912Z,-3.62
2022-11-20T08:25:03.052Z,-3.65
2022-11-20T08:26:02.897Z,-3.64
2022-11-20T08:27:02.924Z,-3.68
2022-11-20T08:28:11.514Z,-3.68
2022-11-20T08:29:03.880Z,-3.70
2022-11-20T08:30:02.885Z,-3.65
2022-11-20T08:31:02.855Z,-3.64
2022-11-20T08:32:02.827Z,-3.62
2022-11-20T08:33:02.862Z,-3.60
2022-11-20T08:34:07.702Z,-3.61
2022-11-20T08:35:03.825Z,-3.61
2022-11-20T08:36:02.775Z,-3.62
2022-11-20T08:37:02.861Z,-3.64
2022-11-20T08:38:02.754Z,-3.61
2022-11-20T08:39:02.776Z,-3.61
2022-11-20T08:40:02.746Z,-3.61
2022-11-20T08:41:02.785Z,-3.62
2022-11-20T08:42:02.714Z,-3.64
2022-11-20T08:43:03.683Z,-3.67
2022-11-20T08:44:02.710Z,-3.67
2022-11-20T08:45:02.743Z,-3.68
2022-11-20T08:46:02.701Z,-3.68
2022-11-20T08:47:02.702Z,-3.67
2022-11-20T08:48:02.680Z,-3.65
2022-11-20T08:49:02.692Z,-3.64
2022-11-20T08:50:02.634Z,-3.57
2022-11-20T08:51:02.648Z,-3.54
2022-11-20T08:52:02.615Z,-3.53
2022-11-20T08:53:02.633Z,-3.57
2022-11-20T08:54:02.618Z,-3.57
2022-11-20T08:55:02.640Z,-3.61
2022-11-20T08:56:02.564Z,-3.65
2022-11-20T08:57:02.629Z,-3.65
2022-11-20T08:58:02.536Z,-3.67
2022-11-20T08:59:22.928Z,-3.68
2022-11-20T09:00:06.338Z,-3.67
2022-11-20T09:01:02.593Z,-3.70
2022-11-20T09:02:02.498Z,-3.71
2022-11-20T09:03:02.651Z,-3.68
2022-11-20T09:04:02.497Z,-3.67
2022-11-20T09:05:02.511Z,-3.62
2022-11-20T09:06:02.512Z,-3.56
2022-11-20T09:07:02.513Z,-3.53
2022-11-20T09:08:02.440Z,-3.49
2022-11-20T09:09:06.594Z,-3.46
2022-11-20T09:10:24.847Z,-3.43
2022-11-20T09:11:03.441Z,-3.47
2022-11-20T09:12:02.398Z,-3.50
2022-11-20T09:13:02.419Z,-3.49
2022-11-20T09:14:02.377Z,-3.49
2022-11-20T09:15:02.420Z,-3.46
2022-11-20T09:16:02.367Z,-3.44
2022-11-20T09:17:02.375Z,-3.41
2022-11-20T09:18:02.343Z,-3.36
2022-11-20T09:19:33.600Z,-3.33
2022-11-20T09:20:03.306Z,-3.29
2022-11-20T09:21:02.396Z,-3.22
2022-11-20T09:22:02.288Z,-3.18
2022-11-20T09:23:02.974Z,-3.18
2022-11-20T09:24:02.387Z,-3.18
2022-11-20T09:25:02.310Z,-3.15
2022-11-20T09:26:02.259Z,-3.11
2022-11-20T09:27:02.378Z,-3.13
2022-11-20T09:28:02.228Z,-3.08
2022-11-20T09:29:02.246Z,-3.05
2022-11-20T09:30:02.218Z,-3.02
2022-11-20T09:31:02.223Z,-2.97
2022-11-20T09:32:02.188Z,-2.90
2022-11-20T09:33:02.221Z,-2.85
2022-11-20T09:34:02.159Z,-2.81
2022-11-20T09:35:02.207Z,-2.78
2022-11-20T09:36:03.111Z,-2.78
2022-11-20T09:37:06.155Z,-2.78
2022-11-20T09:38:03.145Z,-2.78
2022-11-20T09:39:02.148Z,-2.78
2022-11-20T09:40:02.116Z,-2.74
2022-11-20T09:41:03.086Z,-2.71
2022-11-20T09:42:03.034Z,-2.69
2022-11-20T09:43:03.047Z,-2.66
2022-11-20T09:44:02.072Z,-2.68
2022-11-20T09:45:02.083Z,-2.68
2022-11-20T09:46:02.048Z,-2.68
2022-11-20T09:47:03.516Z,-2.68
2022-11-20T09:48:02.032Z,-2.68
2022-11-20T09:49:02.029Z,-2.63
2022-11-20T09:50:02.268Z,-2.61
2022-11-20T09:51:02.022Z,-2.60
2022-11-20T09:52:02.304Z,-2.61
2022-11-20T09:53:02.267Z,-2.60
2022-11-20T09:54:02.032Z,-2.58
2022-11-20T09:55:01.973Z,-2.57
2022-11-20T09:56:02.070Z,-2.57
2022-11-20T09:57:02.145Z,-2.54
2022-11-20T09:58:03.385Z,-2.56
2022-11-20T09:59:02.118Z,-2.53
2022-11-20T10:00:03.389Z,-2.51
2022-11-20T10:01:02.178Z,-2.48
2022-11-20T10:02:03.309Z,-2.47
2022-11-20T10:03:03.349Z,-2.42
2022-11-20T10:04:02.110Z,-2.40
2022-11-20T10:05:02.639Z,-2.38
2022-11-20T10:06:02.791Z,-2.36
2022-11-20T10:07:31.941Z,-2.40
2022-11-20T10:08:03.695Z,-2.39
2022-11-20T10:09:03.269Z,-2.38
2022-11-20T10:10:02.320Z,-2.32
2022-11-20T10:11:02.400Z,-2.29
2022-11-20T10:12:03.213Z,-2.23
2022-11-20T10:13:01.784Z,-2.16
2022-11-20T10:14:03.183Z,-2.08
2022-11-20T10:15:03.268Z,-2.03
2022-11-20T10:16:03.161Z,-1.98
2022-11-20T10:17:03.181Z,-1.95
2022-11-20T10:18:03.168Z,-1.90
2022-11-20T10:19:03.178Z,-1.85
2022-11-20T10:20:03.121Z,-1.82
2022-11-20T10:21:03.173Z,-1.80
2022-11-20T10:22:01.653Z,-1.72
2022-11-20T10:23:01.800Z,-1.70
2022-11-20T10:24:02.368Z,-1.69
2022-11-20T10:25:01.703Z,-1.66
2022-11-20T10:26:01.595Z,-1.64
2022-11-20T10:27:01.616Z,-1.63
2022-11-20T10:28:01.607Z,-1.62
2022-11-20T10:29:06.017Z,-1.64
2022-11-20T10:30:02.565Z,-1.69
2022-11-20T10:31:03.062Z,-1.69
2022-11-20T10:32:01.564Z,-1.69
2022-11-20T10:33:01.555Z,-1.70
2022-11-20T10:34:22.164Z,-1.72
2022-11-20T10:35:02.534Z,-1.72
2022-11-20T10:36:01.508Z,-1.70
2022-11-20T10:37:01.555Z,-1.69
2022-11-20T10:38:01.486Z,-1.69
2022-11-20T10:39:01.499Z,-1.67
2022-11-20T10:40:01.474Z,-1.67
2022-11-20T10:41:01.502Z,-1.72
2022-11-20T10:42:01.566Z,-1.77
2022-11-20T10:43:02.893Z,-1.78
2022-11-20T10:44:01.443Z,-1.75
2022-11-20T10:45:04.409Z,-1.75
2022-11-20T10:46:01.418Z,-1.70
2022-11-20T10:47:01.384Z,-1.66
2022-11-20T10:48:01.418Z,-1.63
2022-11-20T10:49:01.357Z,-1.63
2022-11-20T10:50:01.378Z,-1.64
2022-11-20T10:51:01.342Z,-1.63
2022-11-20T10:52:01.348Z,-1.63
2022-11-20T10:53:01.620Z,-1.64
2022-11-20T10:54:01.325Z,-1.63
2022-11-20T10:55:01.304Z,-1.60
2022-11-20T10:56:01.340Z,-1.56
2022-11-20T10:57:01.290Z,-1.54
2022-11-20T10:58:01.340Z,-1.53
2022-11-20T10:59:01.269Z,-1.49
2022-11-20T11:00:01.290Z,-1.48
2022-11-20T11:01:01.246Z,-1.46
2022-11-20T11:02:03.563Z,-1.45
2022-11-20T11:03:01.292Z,-1.42
2022-11-20T11:04:01.269Z,-1.39
2022-11-20T11:05:02.155Z,-1.45
2022-11-20T11:06:02.664Z,-1.43
2022-11-20T11:07:01.270Z,-1.39
2022-11-20T11:08:01.167Z,-1.28
2022-11-20T11:09:01.161Z,-1.23
2022-11-20T11:10:01.182Z,-1.20
2022-11-20T11:11:01.132Z,-1.10
2022-11-20T11:12:06.861Z,-1.02
2022-11-20T11:13:02.604Z,-0.99
2022-11-20T11:14:01.134Z,-0.87
2022-11-20T11:15:01.095Z,-0.80
2022-11-20T11:16:01.098Z,-0.69
2022-11-20T11:17:01.069Z,-0.62
2022-11-20T11:18:01.084Z,-0.55
2022-11-20T11:19:01.043Z,-0.57
2022-11-20T11:20:02.516Z,-0.62
2022-11-20T11:21:01.020Z,-0.66
2022-11-20T11:22:01.033Z,-0.69
2022-11-20T11:23:01.025Z,-0.69
2022-11-20T11:24:19.842Z,-0.69
2022-11-20T11:25:02.026Z,-0.63
2022-11-20T11:26:00.982Z,-0.55
2022-11-20T11:27:00.943Z,-0.44
2022-11-20T11:28:00.964Z,-0.36
2022-11-20T11:29:02.394Z,-0.36
2022-11-20T11:30:00.959Z,-0.51
2022-11-20T11:31:00.904Z,-0.59
2022-11-20T11:32:00.925Z,-0.59
2022-11-20T11:33:00.883Z,-0.59
2022-11-20T11:34:00.917Z,-0.57
2022-11-20T11:35:00.865Z,-0.51
2022-11-20T11:36:02.326Z,-0.44
2022-11-20T11:37:00.892Z,-0.37
2022-11-20T11:38:00.863Z,-0.36
2022-11-20T11:39:00.812Z,-0.37
2022-11-20T11:40:22.951Z,-0.36
2022-11-20T11:41:01.820Z,-0.39
2022-11-20T11:42:00.810Z,-0.37
2022-11-20T11:43:00.777Z,-0.39
2022-11-20T11:44:00.790Z,-0.39
2022-11-20T11:45:00.748Z,-0.41
2022-11-20T11:46:00.786Z,-0.41
2022-11-20T11:47:00.745Z,-0.44
2022-11-20T11:48:00.760Z,-0.44
2022-11-20T11:49:00.712Z,-0.41
2022-11-20T11:50:00.728Z,-0.41
2022-11-20T11:51:00.696Z,-0.41
2022-11-20T11:52:02.159Z,-0.36
2022-11-20T11:53:02.128Z,-0.33
2022-11-20T11:54:00.682Z,-0.30
2022-11-20T11:55:00.674Z,-0.26
2022-11-20T11:56:00.651Z,-0.27
2022-11-20T11:57:00.619Z,-0.29
2022-11-20T11:58:00.653Z,-0.30
2022-11-20T11:59:00.616Z,-0.33
2022-11-20T12:00:00.619Z,-0.41
2022-11-20T12:01:00.607Z,-0.47
2022-11-20T12:02:00.639Z,-0.54
2022-11-20T12:03:00.552Z,-0.52
2022-11-20T12:04:00.561Z,-0.47
2022-11-20T12:05:00.555Z,-0.44
2022-11-20T12:06:00.549Z,-0.39
2022-11-20T12:07:09.207Z,-0.36
2022-11-20T12:08:01.544Z,-0.36
2022-11-20T12:09:00.494Z,-0.31
2022-11-20T12:10:00.507Z,-0.29
2022-11-20T12:11:01.942Z,-0.26
2022-11-20T12:12:00.490Z,-0.24
2022-11-20T12:13:00.456Z,-0.23
2022-11-20T12:14:00.479Z,-0.19
2022-11-20T12:15:01.885Z,-0.13
2022-11-20T12:16:01.896Z,-0.09
2022-11-20T12:17:00.731Z,-0.06
2022-11-20T12:18:00.416Z,-0.01
2022-11-20T12:19:00.376Z,0.02
2022-11-20T12:20:00.395Z,0.02
2022-11-20T12:21:00.567Z,0.00
2022-11-20T12:22:03.372Z,-0.01
2022-11-20T12:23:00.347Z,-0.01
2022-11-20T12:24:00.356Z,-0.04
2022-11-20T12:25:00.320Z,0.00
2022-11-20T12:26:00.336Z,0.00
2022-11-20T12:27:01.738Z,0.03
2022-11-20T12:28:00.318Z,0.06
2022-11-20T12:29:00.290Z,0.10
2022-11-20T12:30:00.296Z,0.13
2022-11-20T12:31:00.252Z,0.16
2022-11-20T12:32:00.264Z,0.18
2022-11-20T12:33:00.225Z,0.23
2022-11-20T12:34:00.252Z,0.27
2022-11-20T12:35:00.348Z,0.38
2022-11-20T12:36:00.228Z,0.41
2022-11-20T12:37:00.169Z,0.45
2022-11-20T12:38:00.246Z,0.49
2022-11-20T12:39:00.151Z,0.49
2022-11-20T12:40:00.206Z,0.52
2022-11-20T12:41:00.151Z,0.53
2022-11-20T12:42:00.153Z,0.53
2022-11-20T12:43:00.113Z,0.57
2022-11-20T12:44:00.140Z,0.58
2022-11-20T12:45:00.098Z,0.58
2022-11-20T12:46:01.583Z,0.53
2022-11-20T12:47:01.515Z,0.53
2022-11-20T12:48:01.045Z,0.52
2022-11-20T12:49:00.065Z,0.57
2022-11-20T12:50:00.342Z,0.57
2022-11-20T12:51:14.616Z,0.53
2022-11-20T12:52:01.229Z,0.53
2022-11-20T12:53:01.483Z,0.67